Jaipur Airport
VIJP : now visible

Airfield :











YOU CAN JOIN US ON...

 
LOGIN :

Register | Disclaimer

   EN    FR    IT 

 









Legend :    VFR   Marginal VFR   IFR   Intensive IFR   Very Intensive IFR
Visi :
Ceiling :
>= 8 km
>= 3000ft
5 to 8 km
1000 to 3000 ft
1500m to 5 km
500 to 1000 ft
800 to 1500m
200 to 500 ft
< 800m
< 200 ft
Symbols :   Thunderstorms  Fog  Heavy snow  Heavy precipitations  Wind > 20 kt






- Airport Elevation : 1263 ft
- IATA code : JAI


VIJP - Jaipur

CURRENT METAR :
  • 120100Z 08005KT 2000 BR SCT030 SCT100 16/12 Q1013 NOSIG

EXPIRED METARs :
  • 120030Z 09010KT 2000 BR SCT030 SCT100 15/12 Q1012 NOSIG
  • 120000Z 08006KT 2000 BR SCT030 SCT100 16/12 Q1012 NOSIG
  • 112330Z 07006KT 2000 BR SCT030 SCT100 16/12 Q1012 NOSIG
  • 112300Z 08005KT 2000 BR SCT030 SCT100 15/12 Q1012 NOSIG
  • 112230Z 08005KT 2000 BR SCT030 SCT100 15/13 Q1012 NOSIG

TAF TAF VIJP
Valid from the 12 at 00:00 until the 13 at 06:00 UTC


112300Z 1200/1306 09005KT 0800 MIFG SCT030 SCT100
TEMPO 1200/1206 09010G20KT 1000 TSRA BKN030 FEW035CB BKN100
BECMG 1204/1205 1500 BR
BECMG 1206/1208 13005KT 3000 HZ SCT030 BKN100
BECMG 1211/1213 VRB02KT 2000 FU BR
BECMG 1300/1302 09005KT 0800 MIFG SCT030 BKN100
BECMG 1304/1305 09006KT 1500 HZ BR SCT030 BKN100
TEMPO 1300/1306 09010G20KT 1000 TSRA BKN030 FEW035CB BKN100



MET'MAP, your aeronautical weather chart ! - Copyright ORBIFLY December 2007 - Disclaimer

ORBIFLY MET'MAP TEAM :

Programming & Development : Alexandra Zaïnal
Concept & original design : Baudouin d'Aumeries
Assistance for programming : Marc-Olivier Méhu
Technical & hardware support : Manuel Goepfert

Contact : metmap@orbifly.com




SOURCES & CREDITS :

   NOAA       Earth
Advisory